Time;durP1;ratioP1;P1;durP2;ratioP2;P2;SDS_P1;SDS_P2;PMS_P1;PMS_P2;Temp;Humidity;BMP_temperature;BMP_pressure;BME280_temperature;BME280_humidity;BME280_pressure;Samples;Min_cycle;Max_cycle;Signal;HPM_P1;HPM_P2
2023/03/14 00:01:56;;;;;;;0.00;0.00;;;10.90;99.90;;;;;;5054926;28;20181;-66
2023/03/14 00:04:22;;;;;;;0.00;0.00;;;10.90;99.90;;;;;;5054030;28;20185;-66
2023/03/14 00:06:49;;;;;;;0.00;0.00;;;10.80;99.90;;;;;;5061705;28;20264;-67
2023/03/14 00:09:15;;;;;;;0.00;0.00;;;10.80;99.90;;;;;;5051862;28;20170;-66
2023/03/14 00:11:41;;;;;;;0.00;0.00;;;10.80;99.90;;;;;;5066762;28;20191;-66
2023/03/14 00:14:06;;;;;;;0.00;0.00;;;10.80;99.90;;;;;;5066164;28;20178;-66
2023/03/14 00:16:32;;;;;;;0.00;0.00;;;10.80;99.90;;;;;;5051360;28;20343;-66
2023/03/14 00:19:00;;;;;;;0.00;0.00;;;10.80;99.90;;;;;;5062325;28;20220;-66
2023/03/14 00:21:25;;;;;;;0.00;0.00;;;10.80;99.90;;;;;;5055291;28;20694;-66
2023/03/14 00:23:51;;;;;;;0.00;0.00;;;10.80;99.90;;;;;;5052865;28;20189;-66
2023/03/14 00:26:19;;;;;;;0.00;0.00;;;10.80;99.90;;;;;;5058881;28;20869;-66
2023/03/14 00:28:45;;;;;;;0.00;0.00;;;10.70;99.90;;;;;;5060304;28;20191;-66
2023/03/14 00:31:14;;;;;;;0.00;0.00;;;10.70;99.90;;;;;;5051815;28;20182;-66
2023/03/14 00:33:39;;;;;;;0.00;0.00;;;10.70;99.90;;;;;;5051408;28;20181;-66
2023/03/14 00:36:11;;;;;;;0.00;0.00;;;10.70;99.90;;;;;;5050528;28;20794;-66
2023/03/14 00:38:37;;;;;;;0.00;0.00;;;10.70;99.90;;;;;;5059828;28;20262;-66
2023/03/14 00:41:08;;;;;;;0.00;0.00;;;10.70;99.90;;;;;;5051330;28;20174;-66
2023/03/14 00:43:34;;;;;;;0.00;0.00;;;10.70;99.90;;;;;;5050677;28;20652;-66
2023/03/14 00:46:00;;;;;;;0.00;0.00;;;10.70;99.90;;;;;;5054082;28;20192;-66
2023/03/14 00:48:26;;;;;;;0.00;0.00;;;10.70;99.90;;;;;;5059459;28;20523;-66
2023/03/14 00:50:52;;;;;;;0.00;0.00;;;10.70;99.90;;;;;;5063515;28;20710;-66
2023/03/14 00:53:18;;;;;;;0.00;0.00;;;10.70;99.90;;;;;;5056620;28;20181;-66
2023/03/14 00:55:44;;;;;;;0.00;0.00;;;10.70;99.90;;;;;;5050695;28;20229;-66
2023/03/14 00:58:12;;;;;;;0.00;0.00;;;10.70;99.90;;;;;;5052522;28;20250;-67
2023/03/14 01:00:37;;;;;;;0.00;0.00;;;10.60;99.90;;;;;;5055859;28;20263;-67
2023/03/14 01:03:04;;;;;;;0.00;0.00;;;10.70;99.90;;;;;;5056010;28;20275;-67
2023/03/14 01:05:30;;;;;;;0.00;0.00;;;10.70;99.90;;;;;;5060288;28;20185;-66
2023/03/14 01:07:56;;;;;;;0.00;0.00;;;10.60;99.90;;;;;;5051139;28;20181;-66
2023/03/14 01:10:22;;;;;;;0.00;0.00;;;10.70;99.90;;;;;;5055083;28;20179;-66
2023/03/14 01:12:48;;;;;;;0.00;0.00;;;10.70;99.90;;;;;;5052696;28;20533;-66
2023/03/14 01:15:13;;;;;;;0.00;0.00;;;10.70;99.90;;;;;;5057954;28;20177;-66
2023/03/14 01:17:39;;;;;;;0.00;0.00;;;10.70;99.90;;;;;;5050275;28;20221;-66
2023/03/14 01:20:08;;;;;;;0.00;0.00;;;10.70;99.90;;;;;;5063922;28;20276;-67
2023/03/14 01:22:35;;;;;;;0.00;0.00;;;10.70;99.90;;;;;;5064143;28;20272;-67
2023/03/14 01:25:01;;;;;;;0.00;0.00;;;10.80;99.90;;;;;;5050821;28;20220;-67
2023/03/14 01:27:26;;;;;;;0.00;0.00;;;10.80;99.90;;;;;;5057639;28;20208;-66
2023/03/14 01:29:52;;;;;;;0.00;0.00;;;10.80;99.90;;;;;;5055692;28;20173;-67
2023/03/14 01:32:17;;;;;;;0.00;0.00;;;10.90;99.90;;;;;;5050868;28;20193;-66
2023/03/14 01:34:43;;;;;;;0.00;0.00;;;10.90;99.90;;;;;;5050717;28;20173;-66
2023/03/14 01:37:08;;;;;;;0.00;0.00;;;10.90;99.90;;;;;;5050498;28;20247;-66
2023/03/14 01:39:34;;;;;;;0.00;0.00;;;10.90;99.90;;;;;;5050629;28;20267;-67
2023/03/14 01:42:01;;;;;;;0.00;0.00;;;10.80;99.90;;;;;;5056989;28;20184;-67
2023/03/14 01:44:26;;;;;;;0.00;0.00;;;10.80;99.90;;;;;;5056753;28;20184;-68
2023/03/14 01:46:52;;;;;;;0.00;0.00;;;10.80;99.90;;;;;;5056845;28;20169;-67
2023/03/14 01:49:34;;;;;;;0.00;0.00;;;10.80;99.90;;;;;;5067901;28;20177;-66
2023/03/14 01:52:08;;;;;;;0.00;0.00;;;10.80;99.90;;;;;;5058875;28;20246;-67
2023/03/14 01:54:43;;;;;;;0.00;0.00;;;10.80;99.90;;;;;;5045426;28;20640;-67
2023/03/14 01:57:17;;;;;;;0.00;0.00;;;10.80;99.90;;;;;;5060087;28;20558;-67
2023/03/14 01:59:52;;;;;;;0.00;0.00;;;10.80;99.90;;;;;;5072689;28;20185;-66
2023/03/14 02:02:18;;;;;;;0.00;0.00;;;10.70;99.90;;;;;;5055604;28;20204;-67
2023/03/14 02:04:44;;;;;;;0.00;0.00;;;10.70;99.90;;;;;;5061746;28;20675;-67
2023/03/14 02:07:30;;;;;;;0.00;0.00;;;10.70;99.90;;;;;;5073953;28;20191;-67
2023/03/14 02:09:56;;;;;;;0.00;0.00;;;10.70;99.90;;;;;;5048980;28;20213;-67
2023/03/14 02:12:23;;;;;;;0.00;0.00;;;10.70;99.90;;;;;;5071415;28;20227;-67
2023/03/14 02:14:48;;;;;;;0.00;0.00;;;10.70;99.90;;;;;;5061316;28;20216;-67
2023/03/14 02:17:16;;;;;;;0.00;0.00;;;10.70;99.90;;;;;;5061841;28;20699;-67
2023/03/14 02:20:12;;;;;;;0.00;0.00;;;10.70;99.90;;;;;;5046206;28;20665;-67
2023/03/14 02:22:40;;;;;;;0.00;0.00;;;10.60;99.90;;;;;;5040623;28;20739;-67
2023/03/14 02:25:19;;;;;;;0.00;0.00;;;10.60;99.90;;;;;;5053606;28;20577;-68
2023/03/14 02:27:46;;;;;;;0.00;0.00;;;10.60;99.90;;;;;;5066678;28;20673;-67
2023/03/14 02:30:16;;;;;;;0.00;0.00;;;10.50;99.90;;;;;;5061447;28;20196;-67
2023/03/14 02:32:50;;;;;;;0.00;0.00;;;10.50;99.90;;;;;;5037260;28;20176;-67
2023/03/14 02:35:22;;;;;;;0.00;0.00;;;10.50;99.90;;;;;;5053695;28;20181;-66
2023/03/14 02:38:11;;;;;;;0.00;0.00;;;10.50;99.90;;;;;;5065877;28;20558;-67
2023/03/14 02:40:36;;;;;;;0.00;0.00;;;10.50;99.90;;;;;;5067809;28;20188;-67
2023/03/14 02:43:02;;;;;;;0.00;0.00;;;10.50;99.90;;;;;;5053489;28;20183;-67
2023/03/14 02:45:40;;;;;;;0.00;0.00;;;10.50;99.90;;;;;;5067463;28;20670;-67
2023/03/14 02:48:11;;;;;;;0.10;0.10;;;10.40;99.90;;;;;;5058429;28;20535;-67
2023/03/14 02:50:38;;;;;;;0.00;0.00;;;10.40;99.90;;;;;;5057883;28;20249;-67
2023/03/14 02:53:03;;;;;;;0.00;0.00;;;10.40;99.90;;;;;;5067186;28;20383;-67
2023/03/14 02:55:29;;;;;;;0.00;0.00;;;10.40;99.90;;;;;;5067396;28;20263;-66
2023/03/14 02:57:54;;;;;;;0.00;0.00;;;10.40;99.90;;;;;;5065379;28;20232;-67
2023/03/14 03:00:20;;;;;;;0.00;0.00;;;10.40;99.90;;;;;;5051084;28;20177;-67
2023/03/14 03:02:46;;;;;;;0.00;0.00;;;10.40;99.90;;;;;;5053076;28;20536;-67
2023/03/14 03:05:12;;;;;;;0.00;0.00;;;10.50;99.90;;;;;;5060946;28;20181;-68
2023/03/14 03:07:37;;;;;;;0.00;0.00;;;10.50;99.90;;;;;;5059833;28;20184;-67
2023/03/14 03:10:04;;;;;;;0.00;0.00;;;10.40;99.90;;;;;;5052090;28;20183;-67
2023/03/14 03:12:29;;;;;;;0.00;0.00;;;10.40;99.90;;;;;;5068089;28;20234;-67
2023/03/14 03:14:55;;;;;;;0.00;0.00;;;10.40;99.90;;;;;;5061993;28;20211;-67
2023/03/14 03:17:20;;;;;;;0.00;0.00;;;10.40;99.90;;;;;;5067480;28;20227;-67
2023/03/14 03:19:46;;;;;;;0.00;0.00;;;10.40;99.90;;;;;;5052265;28;20276;-67
2023/03/14 03:22:11;;;;;;;0.00;0.00;;;10.30;99.90;;;;;;5052646;28;20181;-67
2023/03/14 03:24:37;;;;;;;0.00;0.00;;;10.30;99.90;;;;;;5052428;28;20268;-68
2023/03/14 03:27:02;;;;;;;0.00;0.00;;;10.30;99.90;;;;;;5052570;28;20182;-67
2023/03/14 03:29:28;;;;;;;0.00;0.00;;;10.20;99.90;;;;;;5060518;28;20169;-67
2023/03/14 03:31:53;;;;;;;0.00;0.00;;;10.20;99.90;;;;;;5060750;28;20378;-67
2023/03/14 03:34:19;;;;;;;0.00;0.00;;;10.20;99.90;;;;;;5053540;28;20181;-66
2023/03/14 03:36:45;;;;;;;0.00;0.00;;;10.20;99.90;;;;;;5071838;28;20229;-67
2023/03/14 03:39:10;;;;;;;0.00;0.00;;;10.20;99.90;;;;;;5061190;28;20610;-67
2023/03/14 03:41:36;;;;;;;0.00;0.00;;;10.20;99.90;;;;;;5060858;28;20184;-67
2023/03/14 03:44:01;;;;;;;0.00;0.00;;;10.20;99.90;;;;;;5061582;28;20209;-68
2023/03/14 03:46:27;;;;;;;0.00;0.00;;;10.20;99.90;;;;;;5052154;28;20213;-67
2023/03/14 03:48:57;;;;;;;0.00;0.00;;;10.20;99.90;;;;;;5052294;28;20219;-68
2023/03/14 03:51:22;;;;;;;0.00;0.00;;;10.20;99.90;;;;;;5032122;28;20186;-67
2023/03/14 03:53:48;;;;;;;0.00;0.00;;;10.30;99.90;;;;;;5032281;28;20182;-68
2023/03/14 03:56:13;;;;;;;0.00;0.00;;;10.30;99.90;;;;;;5036813;28;20170;-68
2023/03/14 03:58:39;;;;;;;0.00;0.00;;;10.30;99.90;;;;;;5051777;28;20228;-68
2023/03/14 04:01:09;;;;;;;0.00;0.00;;;10.30;99.90;;;;;;5052254;28;20265;-68
2023/03/14 04:03:35;;;;;;;0.00;0.00;;;10.30;99.90;;;;;;5032096;28;20193;-67
2023/03/14 04:06:03;;;;;;;0.00;0.00;;;10.30;99.90;;;;;;5032091;28;20173;-68
2023/03/14 04:08:29;;;;;;;0.00;0.00;;;10.30;99.90;;;;;;5031969;28;20174;-69
2023/03/14 04:10:58;;;;;;;0.00;0.00;;;10.30;99.90;;;;;;5031863;28;20170;-68
2023/03/14 04:13:24;;;;;;;0.00;0.00;;;10.30;99.90;;;;;;5036992;28;20268;-67
2023/03/14 04:15:51;;;;;;;0.10;0.10;;;10.30;99.90;;;;;;5052047;28;20221;-66
2023/03/14 04:18:17;;;;;;;0.00;0.00;;;10.30;99.90;;;;;;5052276;28;20237;-66
2023/03/14 04:20:42;;;;;;;0.00;0.00;;;10.30;99.90;;;;;;5062643;28;20203;-62
2023/03/14 04:23:08;;;;;;;0.00;0.00;;;10.30;99.90;;;;;;5054145;28;20182;-62
2023/03/14 04:25:33;;;;;;;0.00;0.00;;;10.30;99.90;;;;;;5071371;28;20184;-63
2023/03/14 04:27:59;;;;;;;0.00;0.00;;;10.40;99.90;;;;;;5060933;28;20583;-62
2023/03/14 04:30:24;;;;;;;0.00;0.00;;;10.40;99.90;;;;;;5058469;28;20185;-64
2023/03/14 04:32:50;;;;;;;0.00;0.00;;;10.30;99.90;;;;;;5051483;28;20185;-68
2023/03/14 04:35:16;;;;;;;0.00;0.00;;;10.30;99.90;;;;;;5051195;28;20178;-65
2023/03/14 04:37:44;;;;;;;0.00;0.00;;;10.30;99.90;;;;;;5050634;28;20205;-68
2023/03/14 04:40:11;;;;;;;0.00;0.00;;;10.30;99.90;;;;;;5051459;28;20297;-66
2023/03/14 04:42:36;;;;;;;0.00;0.00;;;10.30;99.90;;;;;;5051174;28;20181;-65
2023/03/14 04:45:02;;;;;;;0.00;0.00;;;10.30;99.90;;;;;;5051292;28;20699;-66
2023/03/14 04:47:28;;;;;;;0.00;0.00;;;10.30;99.90;;;;;;5050985;28;20173;-66
2023/03/14 04:49:53;;;;;;;0.00;0.00;;;10.30;99.90;;;;;;5051275;28;20188;-63
2023/03/14 04:52:19;;;;;;;0.00;0.00;;;10.20;99.90;;;;;;5052879;28;20311;-68
2023/03/14 04:54:44;;;;;;;0.00;0.00;;;10.20;99.90;;;;;;5051119;28;20242;-66
2023/03/14 04:57:10;;;;;;;0.00;0.00;;;10.20;99.90;;;;;;5051843;28;20520;-65
2023/03/14 04:59:35;;;;;;;0.00;0.00;;;10.20;99.90;;;;;;5050605;28;20247;-71
2023/03/14 05:02:01;;;;;;;0.00;0.00;;;10.20;99.90;;;;;;5050474;28;20181;-72
2023/03/14 05:04:26;;;;;;;0.00;0.00;;;10.20;99.90;;;;;;5050775;28;20879;-71
2023/03/14 05:06:52;;;;;;;0.00;0.00;;;10.20;99.90;;;;;;5050542;28;20257;-72
2023/03/14 05:09:17;;;;;;;0.00;0.00;;;10.10;99.90;;;;;;5050910;28;20209;-71
2023/03/14 05:11:43;;;;;;;0.00;0.00;;;10.10;99.90;;;;;;5050913;28;20192;-72
2023/03/14 05:14:08;;;;;;;0.00;0.00;;;10.10;99.90;;;;;;5050782;28;20572;-70
2023/03/14 05:16:34;;;;;;;0.00;0.00;;;10.10;99.90;;;;;;5050189;28;20311;-70
2023/03/14 05:19:01;;;;;;;0.00;0.00;;;10.10;99.90;;;;;;5049812;28;20217;-70
2023/03/14 05:21:27;;;;;;;0.10;0.10;;;10.10;99.90;;;;;;5050574;28;20177;-70
2023/03/14 05:23:53;;;;;;;0.00;0.00;;;10.00;99.90;;;;;;5052988;28;20229;-69
2023/03/14 05:26:19;;;;;;;0.00;0.00;;;10.00;99.90;;;;;;5054792;28;20632;-70
2023/03/14 05:28:44;;;;;;;0.00;0.00;;;10.10;99.90;;;;;;5056415;28;20520;-70
2023/03/14 05:31:10;;;;;;;0.00;0.00;;;10.10;99.90;;;;;;5074434;28;20223;-70
2023/03/14 05:33:36;;;;;;;0.00;0.00;;;10.10;99.90;;;;;;5073141;28;20268;-70
2023/03/14 05:36:02;;;;;;;0.00;0.00;;;10.10;99.90;;;;;;5074390;28;20204;-70
2023/03/14 05:38:27;;;;;;;0.00;0.00;;;10.20;99.90;;;;;;5074274;28;20589;-69
2023/03/14 05:40:53;;;;;;;0.00;0.00;;;10.20;99.90;;;;;;5074175;28;20180;-70
2023/03/14 05:43:18;;;;;;;0.00;0.00;;;10.20;99.90;;;;;;5074414;28;20226;-69
2023/03/14 05:45:44;;;;;;;0.00;0.00;;;10.30;99.90;;;;;;5074193;28;20173;-70
2023/03/14 05:48:10;;;;;;;0.00;0.00;;;10.30;99.90;;;;;;5073948;28;20248;-70
2023/03/14 05:50:36;;;;;;;0.00;0.00;;;10.30;99.90;;;;;;5074017;28;20177;-70
2023/03/14 05:53:01;;;;;;;0.00;0.00;;;10.40;99.90;;;;;;5072728;28;20701;-69
2023/03/14 05:55:27;;;;;;;0.00;0.00;;;10.50;99.90;;;;;;5073930;28;20224;-70
2023/03/14 05:57:54;;;;;;;0.00;0.00;;;10.50;99.90;;;;;;5055455;28;20201;-70
2023/03/14 06:00:20;;;;;;;0.00;0.00;;;10.60;99.90;;;;;;5053998;28;20173;-70
2023/03/14 06:02:45;;;;;;;0.00;0.00;;;10.60;99.90;;;;;;5054043;28;20707;-70
2023/03/14 06:05:11;;;;;;;0.00;0.00;;;10.60;99.90;;;;;;5053771;28;20173;-70
2023/03/14 06:07:37;;;;;;;0.00;0.00;;;10.60;99.90;;;;;;5053803;28;20668;-69
2023/03/14 06:10:03;;;;;;;0.00;0.00;;;10.70;99.90;;;;;;5053959;28;20190;-71
2023/03/14 06:12:29;;;;;;;0.00;0.00;;;10.70;99.90;;;;;;5053608;28;20264;-70
2023/03/14 06:14:54;;;;;;;0.00;0.00;;;10.70;99.90;;;;;;5053972;28;20308;-71
2023/03/14 06:17:20;;;;;;;0.00;0.00;;;10.70;99.90;;;;;;5053598;28;20249;-70
2023/03/14 06:19:46;;;;;;;0.00;0.00;;;10.70;99.90;;;;;;5053803;28;20621;-70
2023/03/14 06:22:11;;;;;;;0.00;0.00;;;10.70;99.90;;;;;;5053535;28;20178;-71
2023/03/14 06:24:37;;;;;;;0.00;0.00;;;10.60;99.90;;;;;;5053593;28;20187;-70
2023/03/14 06:27:03;;;;;;;0.00;0.00;;;10.60;99.90;;;;;;5053702;28;20177;-71
2023/03/14 06:29:29;;;;;;;0.00;0.00;;;10.60;99.90;;;;;;5061402;28;20169;-71
2023/03/14 06:31:55;;;;;;;0.00;0.00;;;10.60;99.90;;;;;;5073588;28;20181;-71
2023/03/14 06:34:20;;;;;;;0.00;0.00;;;10.60;99.90;;;;;;5073506;28;20180;-70
2023/03/14 06:36:46;;;;;;;0.00;0.00;;;10.60;99.90;;;;;;5073610;28;20222;-72
2023/03/14 06:39:11;;;;;;;0.00;0.00;;;10.70;99.90;;;;;;5073129;28;20342;-71
2023/03/14 06:41:37;;;;;;;0.00;0.00;;;10.70;99.90;;;;;;5073339;28;20508;-71
2023/03/14 06:44:03;;;;;;;0.00;0.00;;;10.80;99.90;;;;;;5073391;28;20223;-71
2023/03/14 06:46:28;;;;;;;0.00;0.00;;;10.80;99.90;;;;;;5072983;28;20177;-71
2023/03/14 06:48:54;;;;;;;0.00;0.00;;;10.90;99.90;;;;;;5073186;28;20199;-71
2023/03/14 06:51:19;;;;;;;0.00;0.00;;;11.00;99.90;;;;;;5073167;28;20243;-70
2023/03/14 06:53:45;;;;;;;0.00;0.00;;;11.10;99.90;;;;;;5073232;28;20202;-71
2023/03/14 06:56:10;;;;;;;0.00;0.00;;;11.20;99.90;;;;;;5068592;28;20206;-72
2023/03/14 06:58:36;;;;;;;0.00;0.00;;;11.40;99.90;;;;;;5052995;28;20255;-71
2023/03/14 07:01:02;;;;;;;0.10;0.05;;;11.50;99.90;;;;;;5053060;28;20310;-71
2023/03/14 07:03:27;;;;;;;0.00;0.00;;;11.60;99.90;;;;;;5053003;28;20169;-71
2023/03/14 07:05:53;;;;;;;0.00;0.00;;;11.60;99.90;;;;;;5052856;28;20177;-72
2023/03/14 07:08:19;;;;;;;0.00;0.00;;;11.60;99.90;;;;;;5052923;28;20166;-71
2023/03/14 07:10:44;;;;;;;0.00;0.00;;;11.50;99.90;;;;;;5052881;28;20231;-72
2023/03/14 07:13:10;;;;;;;0.00;0.00;;;11.50;99.90;;;;;;5052720;28;20676;-72
2023/03/14 07:15:36;;;;;;;0.00;0.00;;;11.60;99.90;;;;;;5052636;28;20204;-72
2023/03/14 07:18:01;;;;;;;0.00;0.00;;;11.60;99.90;;;;;;5052510;28;20320;-72
2023/03/14 07:20:27;;;;;;;0.00;0.00;;;11.70;99.90;;;;;;5052593;28;20182;-72
2023/03/14 07:22:54;;;;;;;0.00;0.00;;;11.80;99.90;;;;;;5052784;28;20178;-71
2023/03/14 07:25:19;;;;;;;0.00;0.00;;;11.80;99.90;;;;;;5052529;28;20590;-71
2023/03/14 07:27:47;;;;;;;0.00;0.00;;;11.80;99.90;;;;;;5052570;28;20178;-71
2023/03/14 07:30:13;;;;;;;0.00;0.00;;;11.80;99.90;;;;;;5066465;28;20193;-73
2023/03/14 07:32:39;;;;;;;0.03;0.03;;;11.70;99.90;;;;;;5072279;28;20219;-71
2023/03/14 07:35:05;;;;;;;0.00;0.00;;;11.70;99.90;;;;;;5072353;28;20208;-71
2023/03/14 07:37:31;;;;;;;0.00;0.00;;;11.70;99.90;;;;;;5072154;28;20185;-71
2023/03/14 07:39:56;;;;;;;0.00;0.00;;;11.70;99.90;;;;;;5072250;28;20227;-71
2023/03/14 07:42:22;;;;;;;0.00;0.00;;;11.70;99.90;;;;;;5072255;28;20187;-71
2023/03/14 07:44:47;;;;;;;0.00;0.00;;;11.60;99.90;;;;;;5072233;28;20173;-71
2023/03/14 07:47:13;;;;;;;0.10;0.10;;;11.60;99.90;;;;;;5071426;28;20680;-72
2023/03/14 07:49:38;;;;;;;0.00;0.00;;;11.60;99.90;;;;;;5071868;28;20181;-72
2023/03/14 07:52:04;;;;;;;0.00;0.00;;;11.60;99.90;;;;;;5072239;28;20184;-72
2023/03/14 07:54:29;;;;;;;0.00;0.00;;;11.50;99.90;;;;;;5071789;28;20628;-71
2023/03/14 07:56:55;;;;;;;0.00;0.00;;;11.50;99.90;;;;;;5061502;28;20189;-71
2023/03/14 07:59:21;;;;;;;0.00;0.00;;;11.60;99.90;;;;;;5051974;28;20568;-72
2023/03/14 08:01:46;;;;;;;0.00;0.00;;;11.60;99.90;;;;;;5052122;28;20840;-71
2023/03/14 08:04:12;;;;;;;0.00;0.00;;;11.60;99.90;;;;;;5051731;28;20240;-71
2023/03/14 08:06:37;;;;;;;0.00;0.00;;;11.60;99.90;;;;;;5051899;28;20181;-71
2023/03/14 08:09:04;;;;;;;0.00;0.00;;;11.70;99.90;;;;;;5051877;28;20181;-72
2023/03/14 08:11:29;;;;;;;0.00;0.00;;;11.70;99.90;;;;;;5051782;28;20178;-71
2023/03/14 08:13:55;;;;;;;0.00;0.00;;;11.70;99.90;;;;;;5052058;28;20659;-71
2023/03/14 08:16:22;;;;;;;0.00;0.00;;;11.70;99.90;;;;;;5051833;28;20680;-70
2023/03/14 08:18:48;;;;;;;0.00;0.00;;;11.80;99.90;;;;;;5052081;28;20209;-71
2023/03/14 08:21:14;;;;;;;0.00;0.00;;;11.80;99.90;;;;;;5051820;28;20238;-70
2023/03/14 08:23:39;;;;;;;0.00;0.00;;;11.90;99.90;;;;;;5051684;28;20190;-70
2023/03/14 08:26:05;;;;;;;0.00;0.00;;;11.90;99.90;;;;;;5051901;28;20674;-70
2023/03/14 08:28:33;;;;;;;0.00;0.00;;;11.90;99.90;;;;;;5051804;28;20169;-70
2023/03/14 08:30:59;;;;;;;0.00;0.00;;;11.90;99.90;;;;;;5071893;28;20174;-71
2023/03/14 08:33:26;;;;;;;0.00;0.00;;;11.90;99.90;;;;;;5071769;28;20667;-70
2023/03/14 08:35:56;;;;;;;0.00;0.00;;;11.90;99.90;;;;;;5071886;28;20230;-69
2023/03/14 08:38:21;;;;;;;0.00;0.00;;;11.90;99.90;;;;;;5071651;28;20262;-70
2023/03/14 08:40:47;;;;;;;0.00;0.00;;;11.80;99.90;;;;;;5071613;28;20263;-70
2023/03/14 08:43:13;;;;;;;0.00;0.00;;;11.80;99.90;;;;;;5071595;28;20172;-70
2023/03/14 08:45:38;;;;;;;0.00;0.00;;;11.80;99.90;;;;;;5071574;28;20287;-70
2023/03/14 08:48:04;;;;;;;0.00;0.00;;;11.80;99.90;;;;;;5071790;28;20185;-71
2023/03/14 08:50:30;;;;;;;0.00;0.00;;;11.80;99.90;;;;;;5071459;28;20314;-70
2023/03/14 08:52:58;;;;;;;0.00;0.00;;;11.80;99.90;;;;;;5071669;28;20257;-71
2023/03/14 08:55:23;;;;;;;0.00;0.00;;;11.80;99.90;;;;;;5071486;28;20179;-70
2023/03/14 08:57:49;;;;;;;0.00;0.00;;;11.80;99.90;;;;;;5052518;28;20299;-71
2023/03/14 09:00:15;;;;;;;0.00;0.00;;;11.80;99.90;;;;;;5051445;28;20336;-71
2023/03/14 09:02:41;;;;;;;0.00;0.00;;;11.70;99.90;;;;;;5051279;28;20174;-70
2023/03/14 09:05:08;;;;;;;0.00;0.00;;;11.60;99.90;;;;;;5051407;28;20275;-70
2023/03/14 09:07:33;;;;;;;0.00;0.00;;;11.50;99.90;;;;;;5051210;28;20180;-70
2023/03/14 09:09:59;;;;;;;0.03;0.03;;;11.50;99.90;;;;;;5051399;28;20181;-70
2023/03/14 09:12:24;;;;;;;0.00;0.00;;;11.50;99.90;;;;;;5051304;28;20222;-69
2023/03/14 09:14:50;;;;;;;0.00;0.00;;;11.60;99.90;;;;;;5051204;28;20177;-70
2023/03/14 09:17:15;;;;;;;0.00;0.00;;;11.70;99.90;;;;;;5051043;28;20753;-70
2023/03/14 09:19:41;;;;;;;0.00;0.00;;;11.70;99.90;;;;;;5051081;28;20220;-70
2023/03/14 09:22:06;;;;;;;0.00;0.00;;;11.80;99.90;;;;;;5051195;28;20178;-70
2023/03/14 09:24:32;;;;;;;0.00;0.00;;;11.90;99.90;;;;;;5051113;28;20173;-70
2023/03/14 09:26:58;;;;;;;0.00;0.00;;;12.00;99.90;;;;;;5051240;28;20177;-70
2023/03/14 09:29:24;;;;;;;0.00;0.00;;;12.00;99.90;;;;;;5058331;28;20183;-70
2023/03/14 09:31:49;;;;;;;0.00;0.00;;;12.00;99.90;;;;;;5071086;28;20200;-70
2023/03/14 09:34:15;;;;;;;0.00;0.00;;;11.90;99.90;;;;;;5071273;28;20204;-69
2023/03/14 09:36:41;;;;;;;0.00;0.00;;;11.90;99.90;;;;;;5071122;28;20193;-70
2023/03/14 09:39:07;;;;;;;0.00;0.00;;;11.90;99.90;;;;;;5071127;28;20215;-70
2023/03/14 09:41:41;;;;;;;0.00;0.00;;;12.00;99.90;;;;;;5070714;28;20679;-71
2023/03/14 09:44:21;;;;;;;0.00;0.00;;;12.00;99.90;;;;;;5071118;28;20216;-71
2023/03/14 09:46:51;;;;;;;0.00;0.00;;;12.00;99.90;;;;;;5071089;28;20172;-71
2023/03/14 09:49:24;;;;;;;0.00;0.00;;;12.00;99.90;;;;;;5070997;28;20207;-71
2023/03/14 09:51:53;;;;;;;0.00;0.00;;;12.10;99.90;;;;;;5070979;28;20208;-72
2023/03/14 09:54:26;;;;;;;0.00;0.00;;;12.10;99.90;;;;;;5070863;28;20222;-72
2023/03/14 09:56:53;;;;;;;0.00;0.00;;;12.00;99.90;;;;;;5060604;28;20177;-69
2023/03/14 09:59:19;;;;;;;0.00;0.00;;;12.00;99.90;;;;;;5050771;28;20221;-69
2023/03/14 10:01:44;;;;;;;0.00;0.00;;;12.10;99.90;;;;;;5050878;28;20174;-70
2023/03/14 10:04:17;;;;;;;0.00;0.00;;;12.10;99.90;;;;;;5050713;28;20637;-70
2023/03/14 10:06:43;;;;;;;0.00;0.00;;;12.10;99.90;;;;;;5050781;28;20177;-70
2023/03/14 10:09:24;;;;;;;0.00;0.00;;;12.20;99.90;;;;;;5051688;28;20201;-69
2023/03/14 10:11:52;;;;;;;0.00;0.00;;;12.30;99.90;;;;;;5052974;28;20177;-69
2023/03/14 10:14:29;;;;;;;0.00;0.00;;;12.30;99.90;;;;;;5054368;28;20178;-68
2023/03/14 10:17:05;;;;;;;0.00;0.00;;;12.30;99.90;;;;;;5054246;28;20233;-69
2023/03/14 10:19:31;;;;;;;0.00;0.00;;;12.20;99.90;;;;;;5054101;28;20335;-69
2023/03/14 10:22:00;;;;;;;0.00;0.00;;;12.10;99.90;;;;;;5054227;28;20205;-70
2023/03/14 10:24:30;;;;;;;0.00;0.00;;;12.00;99.90;;;;;;5053925;28;20276;-69
2023/03/14 10:27:05;;;;;;;0.00;0.00;;;11.90;99.90;;;;;;5054308;28;20170;-69
2023/03/14 10:29:33;;;;;;;0.00;0.00;;;11.70;99.90;;;;;;5062254;28;20184;-69
2023/03/14 10:32:03;;;;;;;0.00;0.00;;;11.60;99.90;;;;;;5073989;28;20169;-69
2023/03/14 10:34:36;;;;;;;0.00;0.00;;;11.60;99.90;;;;;;5073827;28;20540;-69
2023/03/14 10:37:22;;;;;;;0.00;0.00;;;11.70;99.90;;;;;;5072711;28;20269;-69
2023/03/14 10:39:52;;;;;;;0.00;0.00;;;11.70;99.90;;;;;;5073736;28;20355;-69
2023/03/14 10:42:29;;;;;;;0.00;0.00;;;11.80;99.90;;;;;;5073858;28;20643;-69
2023/03/14 10:44:57;;;;;;;0.00;0.00;;;11.70;99.90;;;;;;5073864;28;20185;-69
2023/03/14 10:47:25;;;;;;;0.00;0.00;;;11.60;99.90;;;;;;5073578;28;20180;-70
2023/03/14 10:49:51;;;;;;;0.00;0.00;;;11.60;99.90;;;;;;5073512;28;20535;-70
2023/03/14 10:52:22;;;;;;;0.00;0.00;;;11.60;99.90;;;;;;5073676;28;20177;-70
2023/03/14 10:54:53;;;;;;;0.00;0.00;;;11.50;99.90;;;;;;5073625;28;20177;-70
2023/03/14 10:57:20;;;;;;;0.00;0.00;;;11.40;99.90;;;;;;5059735;28;20181;-69
2023/03/14 10:59:45;;;;;;;0.00;0.00;;;11.50;99.90;;;;;;5052144;28;20224;-70
2023/03/14 11:02:31;;;;;;;1.08;1.00;;;11.50;99.90;;;;;;5053306;28;20173;-70
2023/03/14 11:05:15;;;;;;;0.00;0.00;;;11.40;99.90;;;;;;5053431;28;20228;-70
2023/03/14 11:07:42;;;;;;;0.00;0.00;;;11.50;99.90;;;;;;5068674;28;20531;-69
2023/03/14 11:10:34;;;;;;;0.00;0.00;;;11.50;99.90;;;;;;5053094;28;20185;-69
2023/03/14 11:13:18;;;;;;;0.00;0.00;;;11.60;99.90;;;;;;5053112;28;20170;-70
2023/03/14 11:15:58;;;;;;;0.00;0.00;;;11.60;99.90;;;;;;5053267;28;20259;-70
2023/03/14 11:18:52;;;;;;;0.00;0.00;;;11.50;99.90;;;;;;5052985;28;20213;-70
2023/03/14 11:21:20;;;;;;;0.00;0.00;;;11.40;99.90;;;;;;5052242;28;20264;-69
2023/03/14 11:24:04;;;;;;;0.00;0.00;;;11.40;99.90;;;;;;5052943;28;20181;-70
2023/03/14 11:26:43;;;;;;;0.00;0.00;;;11.20;99.90;;;;;;5052824;28;20170;-69
2023/03/14 11:29:44;;;;;;;0.00;0.00;;;11.00;99.90;;;;;;5058213;28;20235;-70
2023/03/14 11:32:32;;;;;;;0.00;0.00;;;11.00;99.90;;;;;;5072795;28;20183;-69
2023/03/14 11:35:02;;;;;;;0.00;0.00;;;10.90;99.90;;;;;;5072476;28;20192;-70
2023/03/14 11:37:40;;;;;;;0.00;0.00;;;10.90;99.90;;;;;;5072677;28;20279;-69
2023/03/14 11:40:14;;;;;;;0.00;0.00;;;10.90;99.90;;;;;;5072717;28;20211;-70
2023/03/14 11:42:44;;;;;;;0.00;0.00;;;10.90;99.90;;;;;;5072669;28;20169;-69
2023/03/14 11:45:40;;;;;;;0.00;0.00;;;10.80;99.90;;;;;;5072520;28;20181;-69
2023/03/14 11:48:29;;;;;;;0.00;0.00;;;10.80;99.90;;;;;;5063890;28;20208;-68
2023/03/14 11:50:57;;;;;;;0.00;0.00;;;10.70;99.90;;;;;;5072543;28;20176;-70
2023/03/14 11:54:08;;;;;;;0.00;0.00;;;10.70;99.90;;;;;;5072394;28;20165;-70
2023/03/14 11:56:57;;;;;;;0.00;0.00;;;10.60;99.90;;;;;;5022655;28;20190;-69
2023/03/14 11:59:31;;;;;;;0.00;0.00;;;10.60;99.90;;;;;;4993773;28;20214;-70
2023/03/14 12:02:13;;;;;;;0.00;0.00;;;10.50;99.90;;;;;;5031698;28;20190;-70
2023/03/14 12:04:52;;;;;;;0.00;0.00;;;10.50;99.90;;;;;;5052293;28;20315;-70
2023/03/14 12:07:29;;;;;;;0.00;0.00;;;10.40;99.90;;;;;;5052215;28;20170;-70
2023/03/14 12:09:55;;;;;;;0.00;0.00;;;10.40;99.90;;;;;;5050827;28;20530;-71
2023/03/14 12:12:24;;;;;;;0.00;0.00;;;10.20;99.90;;;;;;5052132;28;20177;-70
2023/03/14 12:14:59;;;;;;;0.00;0.00;;;10.00;99.90;;;;;;5052013;28;20328;-70
2023/03/14 12:17:39;;;;;;;0.00;0.00;;;9.70;99.90;;;;;;5051982;28;20240;-70
2023/03/14 12:20:16;;;;;;;0.00;0.00;;;9.60;99.90;;;;;;5052069;28;20197;-70
2023/03/14 12:22:43;;;;;;;0.00;0.00;;;9.40;99.90;;;;;;5051847;28;20256;-70
2023/03/14 12:25:19;;;;;;;0.00;0.00;;;9.30;99.90;;;;;;5051837;28;20336;-71
2023/03/14 12:27:54;;;;;;;0.00;0.00;;;9.20;99.90;;;;;;5051776;28;20204;-71
2023/03/14 12:30:37;;;;;;;0.00;0.00;;;9.10;99.90;;;;;;5066798;28;20635;-71
2023/03/14 12:33:09;;;;;;;0.10;0.10;;;9.10;99.90;;;;;;5071652;28;20636;-71
2023/03/14 12:35:36;;;;;;;0.00;0.00;;;9.00;99.90;;;;;;5071716;28;20176;-72
2023/03/14 12:38:04;;;;;;;0.00;0.00;;;8.90;99.90;;;;;;5071842;28;20201;-69
2023/03/14 12:40:35;;;;;;;0.00;0.00;;;9.00;99.90;;;;;;5071502;28;20532;-70
2023/03/14 12:43:03;;;;;;;0.00;0.00;;;9.00;99.90;;;;;;5071661;28;20170;-70
2023/03/14 12:45:36;;;;;;;0.00;0.00;;;9.10;99.90;;;;;;5071457;28;20180;-69
2023/03/14 12:48:32;;;;;;;0.00;0.00;;;9.10;99.90;;;;;;5071563;28;20181;-69
2023/03/14 12:51:18;;;;;;;0.00;0.00;;;9.10;99.90;;;;;;5062827;28;20184;-68
2023/03/14 12:53:55;;;;;;;0.00;0.00;;;9.10;99.90;;;;;;5071552;28;20176;-68
2023/03/14 12:56:59;;;;;;;0.00;0.00;;;9.20;99.90;;;;;;5065762;28;20169;-70